createdAt,value
2023-03-19T08:19:56.415Z,96467.31
2023-03-19T08:20:57.873Z,96480.00
2023-03-19T08:21:59.266Z,96459.19
2023-03-19T08:23:00.852Z,96475.19
2023-03-19T08:24:04.895Z,96471.03
2023-03-19T08:25:07.458Z,96474.41
2023-03-19T08:26:08.913Z,96468.47
2023-03-19T08:27:10.254Z,96473.84
2023-03-19T08:28:12.034Z,96479.78
2023-03-19T08:29:13.451Z,96476.97
2023-03-19T08:30:15.654Z,96474.94
2023-03-19T08:31:17.373Z,96478.03
2023-03-19T08:32:18.842Z,96475.97
2023-03-19T08:33:20.207Z,96477.31
2023-03-19T08:34:22.549Z,96478.13
2023-03-19T08:35:26.986Z,96471.69
2023-03-19T08:36:28.393Z,96480.19
2023-03-19T08:37:30.056Z,96485.25
2023-03-19T08:38:31.446Z,96471.97
2023-03-19T08:39:32.956Z,96483.41
2023-03-19T08:40:34.582Z,96480.66
2023-03-19T08:41:36.254Z,96481.53
2023-03-19T08:42:44.826Z,96473.75
2023-03-19T08:43:46.798Z,96473.94
2023-03-19T08:44:49.063Z,96481.97
2023-03-19T08:45:50.580Z,96488.88
2023-03-19T08:46:52.279Z,96489.19
2023-03-19T08:47:53.799Z,96480.50
2023-03-19T08:48:55.212Z,96490.59
2023-03-19T08:49:56.669Z,96480.00
2023-03-19T08:51:01.581Z,96477.00
2023-03-19T08:52:03.580Z,96482.72
2023-03-19T08:53:05.398Z,96488.88
2023-03-19T08:54:06.950Z,96487.28
2023-03-19T08:55:09.787Z,96482.63
2023-03-19T08:56:11.115Z,96484.44
2023-03-19T08:57:12.577Z,96482.22
2023-03-19T08:58:13.894Z,96488.56
2023-03-19T08:59:16.570Z,96479.78
2023-03-19T09:00:19.382Z,96486.13
2023-03-19T09:01:21.146Z,96488.47
2023-03-19T09:02:22.568Z,96491.97
2023-03-19T09:03:24.054Z,96490.38
2023-03-19T09:04:25.654Z,96490.97
2023-03-19T09:05:29.645Z,96496.91
2023-03-19T09:06:31.344Z,96483.75
2023-03-19T09:07:32.835Z,96476.44
2023-03-19T09:08:35.494Z,96485.53
2023-03-19T09:09:37.056Z,96471.75
2023-03-19T09:10:38.981Z,96483.66
2023-03-19T09:11:40.669Z,96486.41
2023-03-19T09:12:42.309Z,96471.38
2023-03-19T09:13:44.447Z,96479.56
2023-03-19T09:14:45.944Z,96486.88
2023-03-19T09:15:47.389Z,96480.03
2023-03-19T09:16:48.879Z,96486.84
2023-03-19T09:17:50.988Z,96488.22
2023-03-19T09:18:52.389Z,96491.13
2023-03-19T09:19:53.848Z,96491.25
2023-03-19T09:20:55.324Z,96473.69
2023-03-19T09:21:56.674Z,96492.28
2023-03-19T09:22:58.145Z,96490.72
2023-03-19T09:23:59.562Z,96490.50
2023-03-19T09:25:00.984Z,96496.34
2023-03-19T09:26:02.450Z,96491.59
2023-03-19T09:27:03.918Z,96492.91
2023-03-19T09:28:05.488Z,96496.44
2023-03-19T09:29:07.093Z,96488.84
2023-03-19T09:30:11.884Z,96498.44
2023-03-19T09:31:13.541Z,96492.41
2023-03-19T09:32:15.304Z,96505.50
2023-03-19T09:33:18.304Z,96497.22
2023-03-19T09:34:19.712Z,96496.63
2023-03-19T09:35:21.491Z,96499.84
2023-03-19T09:36:22.989Z,96500.25
2023-03-19T09:37:24.377Z,96493.94
2023-03-19T09:38:25.756Z,96497.16
2023-03-19T09:39:27.263Z,96484.75
2023-03-19T09:40:45.911Z,96493.31
2023-03-19T09:42:05.853Z,96496.31
2023-03-19T09:43:26.325Z,96490.63
2023-03-19T09:44:32.643Z,96495.63
2023-03-19T09:45:34.729Z,96486.53
2023-03-19T09:46:41.713Z,96490.75
2023-03-19T09:47:45.548Z,96493.75
2023-03-19T09:48:50.451Z,96492.94
2023-03-19T09:49:54.146Z,96477.84
2023-03-19T09:50:56.448Z,96479.44
2023-03-19T09:52:09.587Z,96483.63
2023-03-19T09:53:37.805Z,96479.81
2023-03-19T09:54:39.104Z,96475.44
2023-03-19T09:55:45.061Z,96464.22
2023-03-19T09:56:46.404Z,96477.03
2023-03-19T09:57:48.301Z,96471.00
2023-03-19T09:58:50.046Z,96465.84
2023-03-19T09:59:53.137Z,96475.13
2023-03-19T10:00:55.412Z,96454.97
2023-03-19T10:02:15.866Z,96462.03
2023-03-19T10:03:20.383Z,96466.41
2023-03-19T10:04:43.772Z,96464.00
2023-03-19T10:05:56.716Z,96465.94
2023-03-19T10:07:29.066Z,96474.69
2023-03-19T10:08:32.478Z,96478.34
2023-03-19T10:09:46.073Z,96473.25
2023-03-19T10:10:50.944Z,96470.56
2023-03-19T10:12:17.310Z,96469.53
2023-03-19T10:13:39.585Z,96471.28
2023-03-19T10:15:02.154Z,96477.31
2023-03-19T10:16:05.068Z,96475.19
2023-03-19T10:17:12.170Z,96478.19
2023-03-19T10:18:19.761Z,96477.56
2023-03-19T10:19:40.051Z,96468.63
2023-03-19T10:21:00.590Z,96482.03
2023-03-19T10:22:07.836Z,96481.69
2023-03-19T10:23:31.076Z,96475.44
2023-03-19T10:24:37.334Z,96482.94
2023-03-19T10:25:41.731Z,96474.41
2023-03-19T10:26:45.891Z,96469.28
2023-03-19T10:28:00.387Z,96473.16
2023-03-19T10:29:11.208Z,96470.25
2023-03-19T10:30:15.920Z,96469.66
2023-03-19T10:31:30.092Z,96466.63
2023-03-19T10:32:46.152Z,96467.69
2023-03-19T10:34:11.344Z,96463.50
2023-03-19T10:35:24.280Z,96466.69
2023-03-19T10:36:30.664Z,96457.94
2023-03-19T10:37:35.568Z,96464.66
2023-03-19T10:38:43.807Z,96463.94
2023-03-19T10:39:47.176Z,96459.22
2023-03-19T10:41:05.927Z,96467.31
2023-03-19T10:42:44.843Z,96462.84
2023-03-19T10:43:56.899Z,96463.25
2023-03-19T10:45:19.012Z,96461.91
2023-03-19T10:46:21.738Z,96467.84
2023-03-19T10:47:26.400Z,96465.59
2023-03-19T10:48:28.400Z,96447.66
2023-03-19T10:49:35.512Z,96453.84
2023-03-19T10:50:53.732Z,96454.19
2023-03-19T10:51:57.333Z,96450.53
2023-03-19T10:53:06.711Z,96455.09
2023-03-19T10:54:23.292Z,96456.66
2023-03-19T10:55:26.561Z,96461.81
2023-03-19T10:56:34.033Z,96447.69
2023-03-19T10:57:35.410Z,96458.00
2023-03-19T10:58:37.447Z,96440.75
2023-03-19T10:59:39.088Z,96448.53
2023-03-19T11:00:40.469Z,96452.28
2023-03-19T11:01:42.965Z,96448.47
2023-03-19T11:02:49.816Z,96441.88
2023-03-19T11:03:56.171Z,96443.34
2023-03-19T11:05:22.287Z,96444.97
2023-03-19T11:06:28.055Z,96437.94
2023-03-19T11:07:33.174Z,96443.09
2023-03-19T11:08:37.574Z,96442.94
2023-03-19T11:09:42.597Z,96434.34
2023-03-19T11:10:49.353Z,96431.50
2023-03-19T11:11:57.671Z,96438.56
2023-03-19T11:13:05.452Z,96434.94
2023-03-19T11:14:21.827Z,96438.38
2023-03-19T11:15:38.090Z,96432.94
2023-03-19T11:16:54.826Z,96439.22
2023-03-19T11:17:59.176Z,96434.00
2023-03-19T11:19:00.629Z,96407.91
2023-03-19T11:20:29.141Z,96433.38
2023-03-19T11:21:32.829Z,96429.03
2023-03-19T11:22:37.563Z,96428.91
2023-03-19T11:23:42.486Z,96426.56
2023-03-19T11:25:20.444Z,96434.00
2023-03-19T11:26:23.221Z,96437.22
2023-03-19T11:27:34.785Z,96437.09
2023-03-19T11:28:37.850Z,96434.91
2023-03-19T11:29:44.536Z,96427.81
2023-03-19T11:31:23.989Z,96428.72
2023-03-19T11:32:57.855Z,96433.66
2023-03-19T11:34:23.718Z,96437.50
2023-03-19T11:35:44.706Z,96431.97
2023-03-19T11:37:08.329Z,96433.34
2023-03-19T11:38:24.858Z,96425.50
2023-03-19T11:39:58.555Z,96426.94
2023-03-19T11:41:11.806Z,96424.50
2023-03-19T11:42:45.058Z,96432.72
2023-03-19T11:43:59.295Z,96420.69
2023-03-19T11:45:12.829Z,96423.91
2023-03-19T11:46:19.385Z,96427.28
2023-03-19T11:47:32.379Z,96422.03
2023-03-19T11:48:42.907Z,96427.22
2023-03-19T11:50:00.404Z,96429.91
2023-03-19T11:51:17.104Z,96423.91
2023-03-19T11:52:28.341Z,96428.97
2023-03-19T11:53:37.030Z,96439.56
2023-03-19T11:54:58.576Z,96433.19
2023-03-19T11:56:29.960Z,96445.59
2023-03-19T11:57:46.309Z,96444.59
2023-03-19T11:58:57.695Z,96445.81
2023-03-19T12:00:26.594Z,96442.31
2023-03-19T12:01:41.950Z,96443.34
2023-03-19T12:03:02.300Z,96438.56
2023-03-19T12:04:34.070Z,96431.25
2023-03-19T12:05:44.640Z,96435.69
2023-03-19T12:07:04.354Z,96435.00
2023-03-19T12:08:14.986Z,96434.75
2023-03-19T12:09:27.940Z,96432.69
2023-03-19T12:10:53.711Z,96441.03
2023-03-19T12:11:58.019Z,96441.97
2023-03-19T12:13:23.751Z,96437.09
2023-03-19T12:14:39.456Z,96423.13
2023-03-19T12:16:15.318Z,96442.78
2023-03-19T12:18:01.718Z,96443.91
2023-03-19T12:19:39.699Z,96440.81
2023-03-19T12:20:48.578Z,96442.31
2023-03-19T12:21:52.861Z,96439.63
2023-03-19T12:23:12.118Z,96440.06
2023-03-19T12:24:32.351Z,96433.91
2023-03-19T12:25:33.970Z,96429.75
2023-03-19T12:26:51.061Z,96436.25
2023-03-19T12:27:59.237Z,96432.00
2023-03-19T12:29:20.586Z,96435.00
2023-03-19T12:30:44.958Z,96431.38
2023-03-19T12:32:01.015Z,96427.19
2023-03-19T12:33:36.810Z,96439.66
2023-03-19T12:34:45.259Z,96428.34
2023-03-19T12:35:50.197Z,96439.44
2023-03-19T12:37:04.612Z,96438.03
2023-03-19T12:38:06.005Z,96434.50
2023-03-19T12:39:14.479Z,96436.72
2023-03-19T12:40:29.151Z,96437.09
2023-03-19T12:41:34.064Z,96437.19
2023-03-19T12:42:40.071Z,96433.00
2023-03-19T12:43:53.980Z,96433.91
2023-03-19T12:44:59.156Z,96427.19
2023-03-19T12:46:06.830Z,96431.81
2023-03-19T12:47:16.859Z,96432.47
2023-03-19T12:48:25.715Z,96424.84
2023-03-19T12:49:38.029Z,96431.47
2023-03-19T12:50:43.362Z,96431.22
2023-03-19T12:51:59.834Z,96429.56
2023-03-19T12:53:05.800Z,96430.13
2023-03-19T12:54:18.249Z,96436.22
2023-03-19T12:55:55.484Z,96427.19
2023-03-19T12:57:03.902Z,96417.50
2023-03-19T12:58:34.182Z,96426.66
2023-03-19T13:00:01.348Z,96425.63
2023-03-19T13:01:12.557Z,96421.63
2023-03-19T13:02:19.054Z,96420.34
2023-03-19T13:03:44.615Z,96420.88
2023-03-19T13:05:23.008Z,96416.38
2023-03-19T13:07:07.288Z,96427.00
2023-03-19T13:08:29.447Z,96421.16
2023-03-19T13:09:56.717Z,96421.59
2023-03-19T13:10:59.666Z,96418.13
2023-03-19T13:12:10.431Z,96423.06
2023-03-19T13:13:28.381Z,96419.06
2023-03-19T13:14:50.924Z,96422.50
2023-03-19T13:15:58.996Z,96411.56
2023-03-19T13:17:21.554Z,96415.03
2023-03-19T13:18:46.349Z,96423.25
2023-03-19T13:19:54.191Z,96414.78
2023-03-19T13:21:21.644Z,96427.94
2023-03-19T13:22:27.705Z,96428.66
2023-03-19T13:23:34.016Z,96424.16
2023-03-19T13:24:40.710Z,96422.31
2023-03-19T13:25:48.291Z,96425.47
2023-03-19T13:26:52.696Z,96422.06
2023-03-19T13:27:55.306Z,96434.84
2023-03-19T13:29:01.608Z,96435.00
2023-03-19T13:30:03.974Z,96427.78
2023-03-19T13:31:08.612Z,96434.13
2023-03-19T13:32:24.319Z,96434.31
2023-03-19T13:33:26.658Z,96433.97
2023-03-19T13:34:31.938Z,96435.88
2023-03-19T13:35:49.374Z,96430.06
2023-03-19T13:36:58.032Z,96430.59
2023-03-19T13:38:04.103Z,96432.91
2023-03-19T13:39:15.373Z,96426.94
2023-03-19T13:40:39.899Z,96430.72
2023-03-19T13:41:42.579Z,96433.97
2023-03-19T13:42:44.080Z,96431.78
2023-03-19T13:43:55.082Z,96430.53
2023-03-19T13:45:04.367Z,96429.34
2023-03-19T14:15:10.046Z,96425.44
2023-03-19T14:16:33.358Z,96430.06
2023-03-19T14:17:42.432Z,96422.38
2023-03-19T14:18:44.810Z,96422.63
2023-03-19T14:19:46.399Z,96415.91
2023-03-19T14:21:03.193Z,96409.97
2023-03-19T14:22:17.186Z,96421.22
2023-03-19T14:23:38.480Z,96420.22
2023-03-19T14:24:56.693Z,96415.78
2023-03-19T14:26:28.823Z,96416.94
2023-03-19T14:27:36.076Z,96426.63
2023-03-19T14:29:02.541Z,96416.66
2023-03-19T14:30:18.946Z,96425.03
2023-03-19T14:31:26.927Z,96407.00
2023-03-19T14:32:40.948Z,96420.66
2023-03-19T14:33:46.673Z,96415.69
2023-03-19T14:34:49.820Z,96416.63
2023-03-19T14:35:51.811Z,96418.53
2023-03-19T14:39:33.021Z,96423.63
2023-03-19T14:40:44.317Z,96419.00
